首页
METAR-TAF:

METAR-TAF

机场 :

鲁珀特王子港, 不列颠哥伦比亚, 加拿大

纬度: 54-18N, 经度: 130-26W, 海拔: 34米

当前天气观测

该预报发布于1小时和14分钟前的12:00 UTC
静风
温度 12°C
湿度 94%
气压 1017 hPa
能見度: 14.5公里
多云层高于4900英尺
多云层高于5500英尺
多云层高于11000英尺

METAR: CYPR 211200Z AUTO 00000KT 9SM BKN049 BKN055 BKN110 12/11 A3004 RMK SLP176

时间: 06:14 (13:14 UTC)

预报

该预报发布于36分钟前的12:38 UTC
预报有效从21日的 13点(UTC)到 22日的 01点(UTC)
风速3节,风向多变
能見度: 10公里
散云层高于2000英尺
散云层高于5000英尺
多云层高于10000英尺
短暂存在
从 21日的 13点(UTC)到 21日的 15点(UTC)
能見度: 3.2公里
散云层高于600英尺
多云层高于1500英尺
阴天层高于4000英尺
轻雾
几率 30%
从 21日的 13点(UTC)到 21日的 14点(UTC)
能見度: 0.8公里
多云层高于200英尺
从 21日的 1500点(UTC)
风速3节,风向多变
能見度: 10公里
散云层高于800英尺
阴天层高于1500英尺
短暂存在
从 21日的 15点(UTC)到 22日的 01点(UTC)
能見度: 3.2公里
阴天层高于800英尺
小毛毛雨, 轻雾
成为
从 21日的 19点(UTC)到 21日的 21点(UTC)
风速8节,风向西转西北

TAF: CYPR 211238Z 2113/2201 VRB03KT P6SM SCT020 SCT050 BKN100 TEMPO 2113/2115 2SM BR SCT006 BKN015 OVC040 PROB30 2113/2114 1/2SM FG BKN002 FM211500 VRB03KT P6SM SCT008 OVC015 TEMPO 2115/2201 2SM -DZ BR OVC008 BECMG 2119/2121 29008KT RMK FCST BASED ON AUTO OBS. NXT FCST BY 211900Z

超过4000个机场的气象观测和天气预报(METAR&TAF报告)。

可查询的气象台以黄色和红色小点在地图上表示。

将鼠标移到小点上方,可查看气象台名称。

然后点击查看天气观测和预报。

如需切换地图:点击带黑十字的绿色按钮放大地图;点击带横线的绿色按钮缩小地图;或者点击绿色箭头查看邻近地区的地图。


METAR-TAF: